Time;durP1;ratioP1;P1;durP2;ratioP2;P2;SDS_P1;SDS_P2;PMS_P1;PMS_P2;Temp;Humidity;BMP_temperature;BMP_pressure;BME280_temperature;BME280_humidity;BME280_pressure;Samples;Min_cycle;Max_cycle;Signal;HPM_P1;HPM_P2
2021/07/17 00:01:39;;;;;;;12.40;7.35;;;;;;;29.98;44.59;99287.41;4485651;32;34439;-63
2021/07/17 00:04:07;;;;;;;13.57;7.43;;;;;;;29.99;44.65;99297.28;4485415;32;33673;-63
2021/07/17 00:06:48;;;;;;;13.05;7.00;;;;;;;29.99;44.66;99301.97;4485441;32;34172;-63
2021/07/17 00:09:16;;;;;;;12.35;7.05;;;;;;;30.01;44.56;99307.19;4485339;32;34063;-64
2021/07/17 00:11:44;;;;;;;12.25;6.93;;;;;;;30.01;44.54;99296.19;4485475;32;33920;-63
2021/07/17 00:14:11;;;;;;;12.37;6.80;;;;;;;29.99;44.46;99294.53;4485357;32;34327;-63
2021/07/17 00:16:39;;;;;;;14.32;7.47;;;;;;;30.00;44.56;99278.84;4485034;32;34133;-63
2021/07/17 00:19:07;;;;;;;13.50;7.97;;;;;;;30.01;44.68;99290.69;4485307;32;33964;-63
2021/07/17 00:21:34;;;;;;;9.57;6.15;;;;;;;29.98;44.75;99301.16;4485240;32;33923;-63
2021/07/17 00:24:02;;;;;;;13.65;7.80;;;;;;;30.00;44.70;99311.88;4485213;32;34147;-63
2021/07/17 00:26:29;;;;;;;12.32;7.37;;;;;;;29.99;44.80;99310.22;4485129;32;34107;-64
2021/07/17 00:29:06;;;;;;;17.73;7.40;;;;;;;29.98;44.86;99303.91;4485241;32;33785;-63
2021/07/17 00:31:33;;;;;;;13.07;7.32;;;;;;;29.97;45.24;99295.91;4485505;32;34663;-63
2021/07/17 00:34:01;;;;;;;9.40;6.55;;;;;;;29.96;45.67;99280.53;4485096;32;33681;-63
2021/07/17 00:36:29;;;;;;;11.27;6.97;;;;;;;29.98;45.33;99284.66;4485061;32;34179;-63
2021/07/17 00:38:56;;;;;;;11.07;6.85;;;;;;;29.96;45.37;99278.59;4485108;32;34058;-63
2021/07/17 00:41:24;;;;;;;13.07;7.60;;;;;;;29.97;45.38;99276.66;4485078;32;34293;-63
2021/07/17 00:43:51;;;;;;;11.40;7.00;;;;;;;29.98;45.40;99267.28;4485168;32;34057;-63
2021/07/17 00:46:19;;;;;;;11.20;6.97;;;;;;;29.98;45.37;99273.66;4485065;32;34676;-63
2021/07/17 00:48:46;;;;;;;14.10;7.62;;;;;;;29.98;45.42;99273.66;4484759;32;34903;-64
2021/07/17 00:51:14;;;;;;;15.60;7.25;;;;;;;29.98;45.28;99267.28;4484998;32;34562;-63
2021/07/17 00:53:42;;;;;;;18.30;7.90;;;;;;;29.96;45.82;99255.75;4470871;32;32961;-63
2021/07/17 00:56:09;;;;;;;16.25;7.53;;;;;;;29.97;45.75;99260.16;4484788;32;33928;-63
2021/07/17 00:58:37;;;;;;;14.82;7.18;;;;;;;29.97;45.74;99243.66;4457908;32;33630;-63
2021/07/17 01:01:04;;;;;;;11.48;7.68;;;;;;;29.97;46.00;99240.91;4470797;32;33970;-63
2021/07/17 01:03:32;;;;;;;13.73;7.28;;;;;;;29.96;45.94;99236.50;4470798;32;33261;-63
2021/07/17 01:06:00;;;;;;;12.23;6.50;;;;;;;29.96;45.97;99231.00;4457763;32;34042;-63
2021/07/17 01:08:27;;;;;;;13.10;7.40;;;;;;;29.96;45.80;99231.81;4470097;32;34888;-63
2021/07/17 01:10:55;;;;;;;12.05;7.30;;;;;;;29.96;45.96;99225.50;4484792;32;33667;-63
2021/07/17 01:13:22;;;;;;;11.02;7.80;;;;;;;29.96;45.96;99211.75;4484869;32;33523;-63
2021/07/17 01:15:57;;;;;;;9.80;6.68;;;;;;;29.94;46.07;99201.03;4484702;32;34049;-63
2021/07/17 01:18:36;;;;;;;12.00;7.30;;;;;;;29.93;45.92;99180.13;4484854;32;34122;-63
2021/07/17 01:21:05;;;;;;;12.40;7.35;;;;;;;29.94;45.87;99170.78;4484699;32;33971;-63
2021/07/17 01:23:34;;;;;;;13.43;7.22;;;;;;;29.94;45.87;99157.03;4471101;32;34181;-63
2021/07/17 01:26:02;;;;;;;11.32;7.25;;;;;;;29.93;45.84;99143.53;4485108;32;34871;-63
2021/07/17 01:28:30;;;;;;;10.60;6.90;;;;;;;29.92;45.85;99131.72;4484536;32;34150;-63
2021/07/17 01:30:57;;;;;;;12.65;7.22;;;;;;;29.94;45.74;99125.97;4484614;32;34140;-63
2021/07/17 01:33:25;;;;;;;13.55;7.47;;;;;;;29.94;45.74;99129.53;4484622;32;33764;-63
2021/07/17 01:35:52;;;;;;;13.35;7.32;;;;;;;29.92;45.78;99131.72;4484609;32;33610;-63
2021/07/17 01:38:20;;;;;;;13.62;7.55;;;;;;;29.94;45.73;99143.28;4484769;32;33663;-63
2021/07/17 01:40:50;;;;;;;14.87;7.75;;;;;;;29.94;45.91;99153.47;4484557;32;34885;-64
2021/07/17 01:43:17;;;;;;;12.10;8.02;;;;;;;29.93;45.91;99169.13;4484495;32;33221;-63
2021/07/17 01:45:59;;;;;;;11.32;7.32;;;;;;;29.93;45.98;99182.06;4484504;32;34115;-63
2021/07/17 01:48:26;;;;;;;12.20;7.20;;;;;;;29.94;45.88;99189.22;4484635;31;34344;-63
2021/07/17 01:50:54;;;;;;;14.57;7.70;;;;;;;29.93;45.86;99191.13;4484479;32;33985;-63
2021/07/17 01:53:22;;;;;;;11.20;7.20;;;;;;;29.93;45.79;99198.56;4484488;32;34920;-63
2021/07/17 01:55:50;;;;;;;11.60;7.75;;;;;;;29.92;45.79;99191.41;4484429;32;33916;-63
2021/07/17 01:58:17;;;;;;;11.48;7.22;;;;;;;29.92;45.73;99207.91;4484535;32;33938;-63
2021/07/17 02:00:45;;;;;;;11.93;7.53;;;;;;;29.93;45.70;99223.31;4484619;32;34001;-63
2021/07/17 02:03:13;;;;;;;11.70;7.10;;;;;;;29.92;45.68;99225.25;4484549;32;33887;-63
2021/07/17 02:05:40;;;;;;;11.68;7.22;;;;;;;29.92;45.69;99241.75;4484549;32;33928;-63
2021/07/17 02:08:11;;;;;;;10.20;7.65;;;;;;;29.92;45.67;99283.00;4484822;32;34714;-63
2021/07/17 02:10:38;;;;;;;11.45;7.03;;;;;;;29.90;45.77;99304.47;4484346;32;34284;-63
2021/07/17 02:13:11;;;;;;;12.98;6.85;;;;;;;29.89;45.78;99291.84;4484521;32;33091;-63
2021/07/17 02:15:44;;;;;;;11.00;7.05;;;;;;;29.90;45.76;99306.41;4484485;32;34288;-63
2021/07/17 02:18:15;;;;;;;11.68;6.97;;;;;;;29.89;45.77;99321.25;4484505;32;34296;-63
2021/07/17 02:20:43;;;;;;;9.90;6.87;;;;;;;29.87;45.79;99340.78;4470184;32;33838;-63
2021/07/17 02:23:10;;;;;;;13.25;7.37;;;;;;;29.86;45.80;99350.16;4482799;32;33531;-63
2021/07/17 02:25:38;;;;;;;12.30;7.12;;;;;;;29.87;45.80;99326.22;4482024;32;34586;-63
2021/07/17 02:28:05;;;;;;;11.85;7.07;;;;;;;29.89;45.69;99304.75;4469368;32;35703;-63
2021/07/17 02:30:33;;;;;;;14.00;7.30;;;;;;;29.90;45.67;99298.16;4473071;32;33974;-63
2021/07/17 02:33:00;;;;;;;12.13;7.50;;;;;;;29.89;45.74;99300.09;4484245;32;33284;-63
2021/07/17 02:35:28;;;;;;;14.10;6.82;;;;;;;29.90;45.75;99307.22;4484594;32;33949;-64
2021/07/17 02:37:55;;;;;;;11.65;6.60;;;;;;;29.90;45.74;99326.50;4484328;32;34106;-63
2021/07/17 02:40:23;;;;;;;10.82;6.97;;;;;;;29.89;45.74;99322.09;4484215;32;33877;-63
2021/07/17 02:42:51;;;;;;;12.23;7.00;;;;;;;29.89;45.68;99305.59;4484210;32;33539;-63
2021/07/17 02:45:18;;;;;;;11.20;7.30;;;;;;;29.90;45.71;99298.16;4481463;32;78376;-63
2021/07/17 02:47:45;;;;;;;10.20;6.05;;;;;;;29.90;45.64;99289.91;4484055;32;33443;-63
2021/07/17 02:50:13;;;;;;;13.85;6.75;;;;;;;29.88;45.60;99284.66;4484025;32;33913;-63
2021/07/17 02:52:41;;;;;;;12.32;6.70;;;;;;;29.89;45.71;99264.34;4484140;32;34125;-63
2021/07/17 02:55:09;;;;;;;8.57;5.87;;;;;;;29.88;45.72;99237.09;4484099;32;33751;-63
2021/07/17 02:57:37;;;;;;;19.25;6.18;;;;;;;29.87;45.67;99210.69;4483981;32;35205;-63
2021/07/17 03:00:06;;;;;;;11.02;6.12;;;;;;;29.89;45.70;99197.47;4484003;32;33821;-63
2021/07/17 03:02:33;;;;;;;15.23;5.75;;;;;;;29.87;45.73;99181.28;4484068;32;34205;-63
2021/07/17 03:05:01;;;;;;;10.90;6.70;;;;;;;29.87;45.82;99202.44;4483963;32;34739;-63
2021/07/17 03:07:28;;;;;;;11.77;6.03;;;;;;;29.86;45.88;99207.13;4483856;32;35328;-63
2021/07/17 03:09:57;;;;;;;11.85;6.00;;;;;;;29.86;45.93;99200.81;4483903;32;34799;-63
2021/07/17 03:12:25;;;;;;;9.60;5.93;;;;;;;29.84;45.90;99201.09;4482183;32;34371;-63
2021/07/17 03:14:52;;;;;;;10.07;5.50;;;;;;;29.86;45.85;99192.56;4479228;32;32803;-63
2021/07/17 03:17:20;;;;;;;13.88;5.65;;;;;;;29.85;45.81;99194.50;4479031;32;32923;-63
2021/07/17 03:19:49;;;;;;;11.23;5.32;;;;;;;29.86;45.79;99187.06;4478988;32;33929;-63
2021/07/17 03:22:16;;;;;;;8.73;5.50;;;;;;;29.85;45.74;99182.69;4478388;32;34129;-63
2021/07/17 03:24:43;;;;;;;13.57;6.18;;;;;;;29.86;45.74;99181.56;4478665;32;33957;-63
2021/07/17 03:27:13;;;;;;;;;;;;;;;29.85;45.72;99182.69;4479396;32;35235;-64
2021/07/17 03:29:41;;;;;;;10.23;5.00;;;;;;;29.97;45.65;99177.63;4478219;32;35692;-63
2021/07/17 03:32:09;;;;;;;10.10;5.12;;;;;;;29.88;45.84;99176.59;4479596;32;33446;-63
2021/07/17 03:34:37;;;;;;;10.57;5.40;;;;;;;29.84;45.74;99164.50;4480672;32;34748;-64
2021/07/17 03:37:05;;;;;;;9.52;4.93;;;;;;;29.83;45.98;99165.63;4480458;32;35240;-64
2021/07/17 03:39:32;;;;;;;14.18;6.03;;;;;;;29.83;45.97;99165.63;4480999;32;33778;-63
2021/07/17 03:42:00;;;;;;;9.13;5.12;;;;;;;29.82;45.95;99170.31;4480189;32;33425;-64
2021/07/17 03:44:29;;;;;;;11.15;6.12;;;;;;;29.83;45.96;99165.63;4480259;32;33513;-64
2021/07/17 03:46:57;;;;;;;9.77;5.17;;;;;;;29.82;45.82;99164.81;4480689;32;34025;-63
2021/07/17 03:49:25;;;;;;;8.95;5.37;;;;;;;29.84;45.73;99167.25;4480764;32;33857;-64
2021/07/17 03:51:52;;;;;;;11.52;5.50;;;;;;;29.83;45.87;99160.13;4480429;32;33437;-63
2021/07/17 03:54:20;;;;;;;8.68;5.03;;;;;;;29.83;45.78;99165.63;4479711;32;33885;-63
2021/07/17 03:56:47;;;;;;;12.50;5.45;;;;;;;29.83;45.76;99157.38;4480471;32;34669;-63
2021/07/17 03:59:15;;;;;;;10.45;5.30;;;;;;;29.82;45.82;99164.81;4480545;32;34082;-63
2021/07/17 04:01:42;;;;;;;11.27;4.85;;;;;;;29.82;45.78;99173.06;4480185;32;34460;-63
2021/07/17 04:04:13;;;;;;;10.95;5.15;;;;;;;29.82;45.63;99173.06;4480182;32;33978;-63
2021/07/17 04:06:41;;;;;;;10.40;5.00;;;;;;;29.83;45.51;99180.19;4480836;32;34914;-64
2021/07/17 04:09:08;;;;;;;10.35;4.68;;;;;;;29.83;45.46;99187.63;4479937;32;34263;-63
2021/07/17 04:11:36;;;;;;;12.68;5.15;;;;;;;29.83;45.51;99204.12;4480492;32;33913;-63
2021/07/17 04:14:03;;;;;;;8.30;4.78;;;;;;;29.82;45.54;99211.56;4480568;32;33765;-63
2021/07/17 04:16:31;;;;;;;9.30;4.93;;;;;;;29.81;45.63;99218.16;4480391;32;35913;-64
2021/07/17 04:18:58;;;;;;;6.97;4.10;;;;;;;29.82;45.56;99230.81;4480333;32;34399;-63
2021/07/17 04:21:26;;;;;;;10.20;4.78;;;;;;;29.83;45.43;99237.13;4480103;32;33021;-63
2021/07/17 04:23:55;;;;;;;8.35;4.43;;;;;;;29.82;45.38;99236.31;4480018;32;32649;-63
2021/07/17 04:26:22;;;;;;;9.00;4.57;;;;;;;29.81;45.46;99242.91;4481244;32;34862;-63
2021/07/17 04:28:50;;;;;;;12.77;4.53;;;;;;;29.82;45.43;99263.00;4479966;32;33744;-63
2021/07/17 04:31:18;;;;;;;12.40;4.72;;;;;;;29.82;45.47;99252.00;4480558;32;33995;-63
2021/07/17 04:33:45;;;;;;;11.00;4.82;;;;;;;29.81;45.44;99262.16;4480274;32;34478;-63
2021/07/17 04:36:13;;;;;;;9.45;4.62;;;;;;;29.82;45.30;99263.00;4480052;32;33978;-63
2021/07/17 04:38:41;;;;;;;8.65;4.28;;;;;;;29.82;45.41;99268.50;4480177;32;34860;-62
2021/07/17 04:41:09;;;;;;;14.43;4.40;;;;;;;29.81;45.43;99259.41;4479835;32;33571;-64
2021/07/17 04:43:36;;;;;;;10.20;4.53;;;;;;;29.81;45.48;99264.91;4478782;32;34115;-63
2021/07/17 04:46:03;;;;;;;11.12;5.03;;;;;;;29.82;45.58;99260.22;4480311;32;34124;-69
2021/07/17 04:48:31;;;;;;;8.85;4.32;;;;;;;29.80;45.57;99260.53;4479494;31;34188;-67
2021/07/17 04:50:59;;;;;;;18.48;5.03;;;;;;;29.80;45.03;99255.03;4480313;32;33630;-63
2021/07/17 04:53:26;;;;;;;15.90;4.45;;;;;;;29.80;45.04;99255.03;4480368;32;34682;-63
2021/07/17 04:55:54;;;;;;;21.17;5.25;;;;;;;29.81;45.08;99261.34;4479950;32;34039;-63
2021/07/17 04:58:21;;;;;;;16.83;5.47;;;;;;;29.80;45.74;99245.94;4480216;32;34597;-63
2021/07/17 05:00:49;;;;;;;21.30;4.68;;;;;;;29.78;45.84;99259.97;4479555;32;34510;-63
2021/07/17 05:03:17;;;;;;;10.05;4.28;;;;;;;29.79;45.81;99247.03;4479662;32;34061;-63
2021/07/17 05:05:45;;;;;;;10.68;3.83;;;;;;;29.77;45.74;99252.00;4480726;32;34914;-63
2021/07/17 05:08:12;;;;;;;13.75;4.78;;;;;;;29.78;45.66;99237.16;4479889;32;34562;-63
2021/07/17 05:10:40;;;;;;;17.35;4.75;;;;;;;29.78;45.58;99237.16;4479970;32;33925;-63
2021/07/17 05:13:11;;;;;;;12.25;4.40;;;;;;;29.78;45.55;99248.97;4480296;32;33183;-64
2021/07/17 05:15:39;;;;;;;16.23;4.50;;;;;;;29.78;45.58;99245.41;4479940;32;35346;-63
2021/07/17 05:18:07;;;;;;;14.70;4.20;;;;;;;29.78;45.62;99253.66;4479821;32;34198;-63
2021/07/17 05:20:35;;;;;;;10.93;5.03;;;;;;;29.77;45.70;99254.75;4479777;32;32363;-63
2021/07/17 05:23:03;;;;;;;11.10;4.20;;;;;;;29.77;45.69;99241.84;4480603;32;33962;-63
2021/07/17 05:25:31;;;;;;;12.00;4.25;;;;;;;29.77;45.73;99243.75;4481470;32;34247;-63
2021/07/17 05:27:58;;;;;;;11.52;4.60;;;;;;;29.77;45.77;99232.75;4470692;32;33889;-63
2021/07/17 05:30:26;;;;;;;9.65;4.28;;;;;;;29.77;45.75;99235.50;4484704;32;33466;-63
2021/07/17 05:32:53;;;;;;;9.55;4.40;;;;;;;29.77;45.69;99241.00;4484521;32;34957;-63
2021/07/17 05:35:21;;;;;;;10.52;4.35;;;;;;;29.76;45.64;99231.13;4484819;32;34278;-62
2021/07/17 05:37:49;;;;;;;8.35;4.28;;;;;;;29.77;45.62;99238.25;4484590;32;33694;-63
2021/07/17 05:40:16;;;;;;;9.10;4.72;;;;;;;29.76;45.69;99236.63;4484598;32;33335;-63
2021/07/17 05:42:43;;;;;;;8.32;4.12;;;;;;;29.76;45.67;99240.19;4484602;32;34167;-63
2021/07/17 05:45:11;;;;;;;10.23;4.32;;;;;;;29.76;45.72;99247.63;4484511;32;34310;-63
2021/07/17 05:47:39;;;;;;;10.60;4.97;;;;;;;29.76;45.54;99228.38;4484505;32;34665;-63
2021/07/17 05:50:06;;;;;;;9.65;4.32;;;;;;;29.76;45.61;99229.19;4484599;32;33419;-63
2021/07/17 05:52:34;;;;;;;8.95;4.60;;;;;;;29.76;45.67;99226.44;4484685;32;34694;-63
2021/07/17 05:55:02;;;;;;;8.50;4.15;;;;;;;29.74;45.65;99218.47;4484115;32;34436;-63
2021/07/17 05:57:32;;;;;;;8.82;4.55;;;;;;;29.76;45.73;99215.44;4484483;32;34551;-63
2021/07/17 05:59:59;;;;;;;10.35;4.50;;;;;;;29.76;45.77;99217.38;4484630;32;33486;-63
2021/07/17 06:02:27;;;;;;;10.07;4.60;;;;;;;29.77;45.79;99227.25;4484223;32;34119;-63
2021/07/17 06:04:55;;;;;;;8.65;4.10;;;;;;;29.76;45.79;99231.94;4484773;32;34908;-63
2021/07/17 06:07:22;;;;;;;10.57;4.07;;;;;;;29.76;45.74;99231.13;4484567;32;34047;-63
2021/07/17 06:09:49;;;;;;;8.38;4.68;;;;;;;29.77;45.71;99224.50;4484231;32;34290;-63
2021/07/17 06:12:18;;;;;;;8.13;4.00;;;;;;;29.76;45.84;99240.19;4484572;32;34396;-63
2021/07/17 06:14:46;;;;;;;10.20;4.62;;;;;;;29.76;45.84;99233.88;4484409;32;34872;-63
2021/07/17 06:17:13;;;;;;;7.45;4.55;;;;;;;29.75;45.87;99233.03;4484315;32;33775;-63
2021/07/17 06:19:41;;;;;;;8.70;4.00;;;;;;;29.75;45.87;99235.78;4484398;32;34169;-63
2021/07/17 06:22:09;;;;;;;10.15;4.75;;;;;;;29.77;45.93;99238.25;4484271;32;34348;-64
2021/07/17 06:24:37;;;;;;;6.37;3.85;;;;;;;29.75;45.89;99238.53;4484440;32;34880;-63
2021/07/17 06:27:05;;;;;;;8.23;4.40;;;;;;;29.76;45.81;99242.12;4484266;32;34272;-63
2021/07/17 06:29:34;;;;;;;8.63;4.15;;;;;;;29.77;45.83;99241.84;4484338;32;33579;-63
2021/07/17 06:32:02;;;;;;;12.68;4.60;;;;;;;29.76;45.77;99245.69;4484407;32;33909;-63
2021/07/17 06:34:30;;;;;;;9.43;4.47;;;;;;;29.78;45.63;99242.66;4484348;32;34255;-63
2021/07/17 06:36:58;;;;;;;9.82;4.37;;;;;;;29.79;45.63;99241.53;4484314;32;33945;-63
2021/07/17 06:39:25;;;;;;;6.30;4.00;;;;;;;29.78;45.65;99246.22;4484314;32;33451;-63
2021/07/17 06:41:53;;;;;;;9.23;4.60;;;;;;;29.78;45.71;99245.41;4484270;32;35197;-63
2021/07/17 06:44:21;;;;;;;8.48;4.62;;;;;;;29.78;45.77;99251.72;4484126;32;34135;-64
2021/07/17 06:46:48;;;;;;;9.60;5.22;;;;;;;29.79;45.91;99255.28;4484209;32;34170;-63
2021/07/17 06:49:16;;;;;;;11.18;4.37;;;;;;;29.79;45.99;99260.78;4484063;32;33408;-63
2021/07/17 06:51:43;;;;;;;7.82;3.97;;;;;;;29.79;45.95;99263.53;4483867;32;34813;-63
2021/07/17 06:54:11;;;;;;;12.32;4.70;;;;;;;29.79;45.88;99267.09;4484080;32;34107;-63
2021/07/17 06:56:38;;;;;;;10.32;5.22;;;;;;;29.80;45.93;99273.44;4484093;32;33922;-63
2021/07/17 06:59:06;;;;;;;9.05;4.78;;;;;;;29.79;45.85;99264.34;4484118;32;33822;-63
2021/07/17 07:01:33;;;;;;;10.00;4.93;;;;;;;29.79;46.02;99267.09;4484033;32;34067;-63
2021/07/17 07:04:01;;;;;;;10.20;4.60;;;;;;;29.81;45.95;99272.34;4483991;32;34148;-63
2021/07/17 07:06:29;;;;;;;10.23;5.22;;;;;;;29.80;45.97;99273.44;4482822;32;34354;-63
2021/07/17 07:08:57;;;;;;;8.15;5.00;;;;;;;29.81;45.94;99275.09;4484006;32;33157;-63
2021/07/17 07:11:24;;;;;;;9.80;4.87;;;;;;;29.81;45.86;99272.34;4483789;32;34743;-63
2021/07/17 07:13:52;;;;;;;13.20;4.82;;;;;;;29.81;45.93;99277.84;4483684;32;34203;-63
2021/07/17 07:16:19;;;;;;;8.63;4.50;;;;;;;29.81;45.98;99278.66;4483716;32;34114;-63
2021/07/17 07:18:47;;;;;;;13.15;5.05;;;;;;;29.81;46.05;99278.66;4483732;32;33605;-64
2021/07/17 07:21:14;;;;;;;12.27;4.72;;;;;;;29.80;46.29;99281.69;4483784;32;34201;-63
2021/07/17 07:23:42;;;;;;;12.05;5.37;;;;;;;29.81;46.35;99278.66;4483695;32;33960;-63
2021/07/17 07:26:09;;;;;;;11.35;4.65;;;;;;;29.83;46.43;99289.38;4483721;32;34390;-63
2021/07/17 07:28:37;;;;;;;10.70;5.85;;;;;;;29.83;46.38;99289.38;4483556;32;32681;-63
2021/07/17 07:31:04;;;;;;;12.95;5.28;;;;;;;29.83;46.44;99283.87;4483493;32;33998;-64
2021/07/17 07:33:32;;;;;;;12.15;5.07;;;;;;;29.83;46.43;99286.63;4483673;32;33656;-63
2021/07/17 07:35:59;;;;;;;9.05;4.72;;;;;;;29.83;46.33;99283.87;4483395;32;34874;-63
2021/07/17 07:38:27;;;;;;;10.25;4.80;;;;;;;29.84;46.16;99282.75;4483540;32;33412;-63
2021/07/17 07:40:55;;;;;;;13.90;5.75;;;;;;;29.83;46.07;99281.94;4469321;32;34663;-64
2021/07/17 07:43:22;;;;;;;7.70;4.68;;;;;;;29.85;46.11;99277.00;4483153;32;33692;-64
2021/07/17 07:45:50;;;;;;;9.73;4.78;;;;;;;29.84;46.05;99280.00;4483391;32;33975;-64
2021/07/17 07:48:17;;;;;;;8.20;4.95;;;;;;;29.86;46.04;99286.06;4483437;32;34232;-64
2021/07/17 07:50:45;;;;;;;9.07;4.87;;;;;;;29.84;46.01;99280.00;4483513;32;34072;-64
2021/07/17 07:53:13;;;;;;;8.63;4.70;;;;;;;29.84;45.93;99286.34;4483256;32;33989;-64
2021/07/17 07:55:40;;;;;;;11.93;5.05;;;;;;;29.85;45.93;99278.94;4469173;32;34882;-64
2021/07/17 07:58:08;;;;;;;8.63;4.60;;;;;;;29.85;45.91;99284.44;4483115;32;33394;-64
2021/07/17 08:00:35;;;;;;;7.65;5.03;;;;;;;29.84;45.83;99280.00;4483132;32;33466;-64
2021/07/17 08:03:03;;;;;;;9.43;4.90;;;;;;;29.84;45.83;99285.50;4483228;32;34095;-64
2021/07/17 08:05:31;;;;;;;7.78;4.72;;;;;;;29.86;45.75;99286.06;4483009;32;34259;-64
2021/07/17 08:07:58;;;;;;;8.27;4.78;;;;;;;29.85;45.71;99287.19;4483142;32;33802;-64
2021/07/17 08:10:26;;;;;;;8.52;4.78;;;;;;;29.84;45.69;99286.34;4483050;32;34122;-64
2021/07/17 08:12:54;;;;;;;11.05;4.72;;;;;;;29.84;45.63;99288.25;4482916;32;33755;-64
2021/07/17 08:15:22;;;;;;;9.27;4.87;;;;;;;29.86;45.59;99294.31;4483006;32;34908;-64
2021/07/17 08:17:49;;;;;;;7.37;4.72;;;;;;;29.85;45.56;99288.00;4483547;32;33708;-64
2021/07/17 08:20:17;;;;;;;7.82;4.40;;;;;;;29.86;45.52;99291.56;4485047;32;34802;-64
2021/07/17 08:22:44;;;;;;;7.30;4.90;;;;;;;29.84;45.47;99282.75;4485256;32;34786;-64
2021/07/17 08:25:12;;;;;;;9.00;4.82;;;;;;;29.84;45.41;99272.59;4485096;32;34019;-64
2021/07/17 08:27:39;;;;;;;6.45;4.30;;;;;;;29.85;45.45;99279.75;4485072;32;34849;-64
2021/07/17 08:30:09;;;;;;;10.75;5.37;;;;;;;29.86;45.50;99275.88;4485165;32;34013;-64
2021/07/17 08:32:53;;;;;;;8.95;4.60;;;;;;;29.84;45.52;99275.34;4485044;32;34231;-64
2021/07/17 08:35:21;;;;;;;10.38;5.07;;;;;;;29.86;45.45;99275.06;4485122;32;34650;-64
2021/07/17 08:37:48;;;;;;;9.88;4.28;;;;;;;29.86;45.43;99280.56;4485015;32;33438;-64
2021/07/17 08:40:16;;;;;;;8.23;4.57;;;;;;;29.85;45.39;99281.69;4470975;32;34603;-64
2021/07/17 08:42:46;;;;;;;8.35;4.50;;;;;;;29.85;45.35;99278.94;4485050;32;34215;-64
2021/07/17 08:45:13;;;;;;;9.82;4.50;;;;;;;29.85;45.33;99285.25;4484835;32;34127;-64
2021/07/17 08:47:42;;;;;;;7.15;4.68;;;;;;;29.86;45.24;99288.81;4484208;32;34136;-64
2021/07/17 08:50:15;;;;;;;8.25;5.00;;;;;;;29.85;45.21;99290.75;4484941;31;33617;-64
2021/07/17 08:52:42;;;;;;;9.32;4.85;;;;;;;29.85;45.19;99290.75;4484932;32;34066;-64
2021/07/17 08:55:11;;;;;;;7.57;4.50;;;;;;;29.85;45.13;99284.44;4484925;32;34065;-64
2021/07/17 08:57:39;;;;;;;8.50;4.60;;;;;;;29.84;45.11;99286.34;4485084;32;34334;-64
2021/07/17 09:00:15;;;;;;;8.37;4.87;;;;;;;29.85;45.10;99279.75;4484695;32;34849;-64
2021/07/17 09:02:52;;;;;;;8.55;4.68;;;;;;;29.85;45.08;99277.00;4484943;32;34911;-64
2021/07/17 09:05:26;;;;;;;8.07;4.47;;;;;;;29.86;45.04;99275.06;4484743;32;33982;-64
2021/07/17 09:07:54;;;;;;;8.23;4.55;;;;;;;29.86;45.04;99275.06;4485193;32;33815;-64
2021/07/17 09:10:33;;;;;;;9.18;4.60;;;;;;;29.85;45.03;99277.00;4484732;32;33695;-64
2021/07/17 09:13:11;;;;;;;8.13;4.35;;;;;;;29.88;45.01;99272.84;4484749;32;33743;-64
2021/07/17 09:15:59;;;;;;;6.62;4.37;;;;;;;29.86;45.00;99275.06;4484793;32;34030;-64
2021/07/17 09:18:44;;;;;;;7.03;3.78;;;;;;;29.89;44.94;99269.00;4485179;32;33744;-64
2021/07/17 09:21:12;;;;;;;6.87;4.43;;;;;;;29.87;44.92;99269.28;4484813;32;34042;-64
2021/07/17 09:23:55;;;;;;;8.88;4.47;;;;;;;29.85;44.90;99268.75;4484764;32;33769;-64
2021/07/17 09:26:23;;;;;;;7.97;4.55;;;;;;;29.84;44.92;99269.84;4472090;32;34363;-64
2021/07/17 09:28:54;;;;;;;7.70;4.20;;;;;;;29.84;44.91;99266.25;4484494;32;33727;-63
2021/07/17 09:31:22;;;;;;;7.37;4.12;;;;;;;29.84;44.90;99269.00;4484516;32;33970;-64
2021/07/17 09:33:50;;;;;;;6.78;4.32;;;;;;;29.84;44.87;99282.75;4484636;32;34105;-65
2021/07/17 09:36:17;;;;;;;9.82;5.10;;;;;;;29.85;44.83;99289.94;4470736;32;33961;-65
2021/07/17 09:38:51;;;;;;;10.45;4.62;;;;;;;29.85;45.09;99285.25;4484923;32;33318;-64
2021/07/17 09:41:20;;;;;;;7.65;5.03;;;;;;;29.84;45.18;99282.75;4470201;32;34837;-64
2021/07/17 09:44:00;;;;;;;6.35;4.37;;;;;;;29.83;45.43;99281.94;4484753;32;34081;-65
2021/07/17 09:46:29;;;;;;;6.87;4.30;;;;;;;29.86;45.22;99280.56;4484266;32;34085;-65
2021/07/17 09:49:02;;;;;;;9.05;4.60;;;;;;;29.82;45.16;99272.06;4484807;32;34483;-65
2021/07/17 09:51:34;;;;;;;7.78;5.32;;;;;;;29.81;45.23;99278.66;4484684;32;34107;-65
2021/07/17 09:54:06;;;;;;;6.87;4.93;;;;;;;29.80;45.83;99273.44;4484404;32;33986;-64
2021/07/17 09:56:35;;;;;;;7.45;5.10;;;;;;;29.81;45.64;99275.91;4484608;32;33827;-65
2021/07/17 09:59:05;;;;;;;7.70;5.57;;;;;;;29.80;45.93;99270.69;4484445;32;33053;-65
2021/07/17 10:01:33;;;;;;;7.65;5.20;;;;;;;29.79;46.09;99269.84;4484649;32;33968;-65
2021/07/17 10:04:04;;;;;;;6.85;5.18;;;;;;;29.82;46.10;99274.00;4484472;32;35330;-64
2021/07/17 10:06:37;;;;;;;7.43;5.18;;;;;;;29.82;46.01;99283.06;4484399;32;34034;-65
2021/07/17 10:09:14;;;;;;;8.30;5.45;;;;;;;29.81;46.10;99284.16;4484520;32;33161;-65
2021/07/17 10:11:43;;;;;;;9.07;5.70;;;;;;;29.81;46.01;99270.41;4484285;32;34640;-65
2021/07/17 10:14:33;;;;;;;8.75;5.55;;;;;;;29.80;45.86;99255.03;4484430;32;34084;-64
2021/07/17 10:17:11;;;;;;;11.35;6.37;;;;;;;29.85;45.94;99251.44;4484371;32;33989;-65
2021/07/17 10:19:39;;;;;;;7.62;5.55;;;;;;;29.83;46.47;99248.13;4468575;32;33552;-64
2021/07/17 10:22:08;;;;;;;8.15;5.72;;;;;;;29.81;46.29;99251.16;4468919;32;34160;-65
2021/07/17 10:24:35;;;;;;;7.55;5.82;;;;;;;29.81;46.14;99245.66;4468789;32;33650;-65
2021/07/17 10:27:04;;;;;;;7.28;5.70;;;;;;;29.82;46.09;99257.47;4468836;32;33484;-65
2021/07/17 10:29:32;;;;;;;12.00;6.75;;;;;;;29.84;45.96;99252.50;4468565;32;33479;-64
2021/07/17 10:31:59;;;;;;;8.88;5.82;;;;;;;29.81;46.40;99248.41;4454715;32;34151;-65
2021/07/17 10:34:28;;;;;;;8.67;6.30;;;;;;;29.83;46.13;99248.94;4468595;32;33995;-65
2021/07/17 10:36:57;;;;;;;9.85;6.43;;;;;;;29.83;46.27;99254.44;4468376;32;34028;-64
2021/07/17 10:39:36;;;;;;;8.82;6.47;;;;;;;29.83;46.39;99246.19;4454574;32;33590;-64
2021/07/17 10:42:21;;;;;;;8.73;7.25;;;;;;;29.87;46.48;99257.47;4453099;32;34766;-65
2021/07/17 10:44:50;;;;;;;10.23;7.00;;;;;;;29.86;46.69;99248.38;4454174;32;33560;-65
2021/07/17 10:47:19;;;;;;;10.75;7.90;;;;;;;29.86;46.68;99253.06;4468508;32;34041;-65
2021/07/17 10:49:50;;;;;;;10.73;7.70;;;;;;;29.83;47.10;99251.69;4468245;32;33402;-65
2021/07/17 10:52:33;;;;;;;10.15;7.85;;;;;;;29.87;46.94;99249.22;4468206;32;33893;-64
2021/07/17 10:55:22;;;;;;;8.98;7.07;;;;;;;29.87;47.16;99250.03;4468225;32;34806;-65
2021/07/17 10:57:51;;;;;;;12.68;8.48;;;;;;;29.88;46.85;99248.91;4468456;32;34088;-65
2021/07/17 11:00:41;;;;;;;9.63;7.53;;;;;;;29.86;47.29;99255.81;4454158;32;34207;-65
2021/07/17 11:03:29;;;;;;;9.20;7.90;;;;;;;29.88;47.12;99253.59;4457156;32;33782;-65
2021/07/17 11:05:57;;;;;;;10.20;7.30;;;;;;;29.91;47.03;99258.53;4468329;32;34973;-65
2021/07/17 11:08:35;;;;;;;10.10;7.97;;;;;;;29.87;47.06;99257.47;4468543;32;33680;-64
2021/07/17 11:11:28;;;;;;;9.85;8.07;;;;;;;29.89;47.08;99249.72;4468337;32;33348;-65
2021/07/17 11:14:16;;;;;;;9.50;8.07;;;;;;;29.90;47.20;99245.91;4467964;32;34705;-64
2021/07/17 11:16:47;;;;;;;10.15;7.72;;;;;;;29.91;47.15;99242.84;4455146;32;34464;-64
2021/07/17 11:19:29;;;;;;;9.15;7.85;;;;;;;29.90;47.01;99240.41;4483081;32;34304;-64
2021/07/17 11:22:11;;;;;;;10.48;8.88;;;;;;;29.90;47.02;99238.47;4469550;32;33571;-65
2021/07/17 11:24:39;;;;;;;12.15;8.40;;;;;;;29.91;47.17;99242.84;4483825;32;34185;-65
2021/07/17 11:27:11;;;;;;;11.12;8.52;;;;;;;29.90;47.21;99243.97;4483942;32;34071;-65
2021/07/17 11:29:47;;;;;;;11.65;8.30;;;;;;;29.91;47.21;99247.53;4483365;32;34050;-64
2021/07/17 11:32:15;;;;;;;12.07;8.85;;;;;;;29.91;47.18;99247.53;4469425;32;33433;-65
2021/07/17 11:34:49;;;;;;;13.00;8.77;;;;;;;29.91;47.19;99248.34;4483545;32;33951;-65
2021/07/17 11:37:19;;;;;;;9.20;7.62;;;;;;;29.92;47.30;99243.69;4483381;32;35057;-64
2021/07/17 11:39:49;;;;;;;11.77;9.55;;;;;;;29.92;46.90;99241.75;4483611;32;34022;-65